sensor_id;sensor_type;location;lat;lon;timestamp;P1;durP1;ratioP1;P2;durP2;ratioP2
12214;SDS011;6170;42.206;24.142;2023-04-25T00:00:26;8.30;;;4.72;;
12214;SDS011;6170;42.206;24.142;2023-04-25T00:02:53;8.52;;;4.63;;
12214;SDS011;6170;42.206;24.142;2023-04-25T00:05:21;6.63;;;4.95;;
12214;SDS011;6170;42.206;24.142;2023-04-25T00:07:48;6.72;;;5.03;;
12214;SDS011;6170;42.206;24.142;2023-04-25T00:10:17;8.18;;;5.47;;
12214;SDS011;6170;42.206;24.142;2023-04-25T00:12:44;5.88;;;4.60;;
12214;SDS011;6170;42.206;24.142;2023-04-25T00:15:11;7.82;;;5.15;;
12214;SDS011;6170;42.206;24.142;2023-04-25T00:17:38;11.60;;;6.25;;
12214;SDS011;6170;42.206;24.142;2023-04-25T00:20:06;8.43;;;5.35;;
12214;SDS011;6170;42.206;24.142;2023-04-25T00:22:34;6.93;;;5.53;;
12214;SDS011;6170;42.206;24.142;2023-04-25T00:25:02;7.03;;;6.13;;
12214;SDS011;6170;42.206;24.142;2023-04-25T00:27:31;7.28;;;5.78;;
12214;SDS011;6170;42.206;24.142;2023-04-25T00:29:58;7.30;;;5.90;;
12214;SDS011;6170;42.206;24.142;2023-04-25T00:32:25;7.53;;;5.60;;
12214;SDS011;6170;42.206;24.142;2023-04-25T00:34:51;8.13;;;6.40;;
12214;SDS011;6170;42.206;24.142;2023-04-25T00:37:20;7.03;;;5.72;;
12214;SDS011;6170;42.206;24.142;2023-04-25T00:39:47;8.10;;;6.00;;
12214;SDS011;6170;42.206;24.142;2023-04-25T00:42:14;6.95;;;5.38;;
12214;SDS011;6170;42.206;24.142;2023-04-25T00:44:43;8.40;;;5.93;;
12214;SDS011;6170;42.206;24.142;2023-04-25T00:47:11;8.48;;;6.50;;
12214;SDS011;6170;42.206;24.142;2023-04-25T00:49:39;8.70;;;6.45;;
12214;SDS011;6170;42.206;24.142;2023-04-25T00:52:05;9.75;;;6.93;;
12214;SDS011;6170;42.206;24.142;2023-04-25T00:54:32;10.55;;;7.03;;
12214;SDS011;6170;42.206;24.142;2023-04-25T00:56:59;8.80;;;6.60;;
12214;SDS011;6170;42.206;24.142;2023-04-25T00:59:27;7.97;;;6.82;;
12214;SDS011;6170;42.206;24.142;2023-04-25T01:01:57;12.43;;;7.47;;
12214;SDS011;6170;42.206;24.142;2023-04-25T01:04:25;8.88;;;7.32;;
12214;SDS011;6170;42.206;24.142;2023-04-25T01:06:54;9.38;;;7.38;;
12214;SDS011;6170;42.206;24.142;2023-04-25T01:09:21;10.75;;;7.30;;
12214;SDS011;6170;42.206;24.142;2023-04-25T01:11:49;10.85;;;7.75;;
12214;SDS011;6170;42.206;24.142;2023-04-25T01:14:16;10.93;;;7.30;;
12214;SDS011;6170;42.206;24.142;2023-04-25T01:16:43;13.77;;;7.80;;
12214;SDS011;6170;42.206;24.142;2023-04-25T01:19:12;11.35;;;7.88;;
12214;SDS011;6170;42.206;24.142;2023-04-25T01:21:44;11.38;;;7.85;;
12214;SDS011;6170;42.206;24.142;2023-04-25T01:24:11;10.82;;;8.10;;
12214;SDS011;6170;42.206;24.142;2023-04-25T01:26:38;10.32;;;7.97;;
12214;SDS011;6170;42.206;24.142;2023-04-25T01:29:09;11.98;;;8.55;;
12214;SDS011;6170;42.206;24.142;2023-04-25T01:31:36;11.70;;;8.23;;
12214;SDS011;6170;42.206;24.142;2023-04-25T01:34:04;9.85;;;8.00;;
12214;SDS011;6170;42.206;24.142;2023-04-25T01:36:31;10.07;;;8.23;;
12214;SDS011;6170;42.206;24.142;2023-04-25T01:39:00;11.73;;;8.63;;
12214;SDS011;6170;42.206;24.142;2023-04-25T01:41:27;14.95;;;8.70;;
12214;SDS011;6170;42.206;24.142;2023-04-25T01:43:55;9.80;;;8.43;;
12214;SDS011;6170;42.206;24.142;2023-04-25T01:46:22;10.57;;;8.65;;
12214;SDS011;6170;42.206;24.142;2023-04-25T01:48:49;13.77;;;8.32;;
12214;SDS011;6170;42.206;24.142;2023-04-25T01:51:16;9.02;;;7.63;;
12214;SDS011;6170;42.206;24.142;2023-04-25T01:53:43;8.65;;;7.70;;
12214;SDS011;6170;42.206;24.142;2023-04-25T01:56:12;11.70;;;7.72;;
12214;SDS011;6170;42.206;24.142;2023-04-25T01:58:39;9.75;;;8.02;;
12214;SDS011;6170;42.206;24.142;2023-04-25T02:01:06;12.10;;;8.43;;
12214;SDS011;6170;42.206;24.142;2023-04-25T02:03:32;9.57;;;7.75;;
12214;SDS011;6170;42.206;24.142;2023-04-25T02:06:00;11.23;;;7.28;;
12214;SDS011;6170;42.206;24.142;2023-04-25T02:08:27;9.27;;;7.30;;
12214;SDS011;6170;42.206;24.142;2023-04-25T02:10:55;9.50;;;7.93;;
12214;SDS011;6170;42.206;24.142;2023-04-25T02:13:23;13.73;;;8.63;;
12214;SDS011;6170;42.206;24.142;2023-04-25T02:15:50;11.45;;;8.20;;
12214;SDS011;6170;42.206;24.142;2023-04-25T02:18:17;9.93;;;8.50;;
12214;SDS011;6170;42.206;24.142;2023-04-25T02:20:45;12.70;;;8.15;;
12214;SDS011;6170;42.206;24.142;2023-04-25T02:23:12;9.60;;;7.55;;
12214;SDS011;6170;42.206;24.142;2023-04-25T02:25:40;13.48;;;7.55;;
12214;SDS011;6170;42.206;24.142;2023-04-25T02:28:07;11.25;;;7.57;;
12214;SDS011;6170;42.206;24.142;2023-04-25T02:30:35;8.00;;;6.68;;
12214;SDS011;6170;42.206;24.142;2023-04-25T02:33:02;7.88;;;6.65;;
12214;SDS011;6170;42.206;24.142;2023-04-25T02:35:29;9.65;;;7.20;;
12214;SDS011;6170;42.206;24.142;2023-04-25T02:37:56;9.38;;;6.55;;
12214;SDS011;6170;42.206;24.142;2023-04-25T02:40:23;9.35;;;7.00;;
12214;SDS011;6170;42.206;24.142;2023-04-25T02:42:50;8.55;;;6.95;;
12214;SDS011;6170;42.206;24.142;2023-04-25T02:45:17;9.35;;;6.90;;
12214;SDS011;6170;42.206;24.142;2023-04-25T02:47:45;8.85;;;7.53;;
12214;SDS011;6170;42.206;24.142;2023-04-25T02:50:12;9.82;;;7.53;;
12214;SDS011;6170;42.206;24.142;2023-04-25T02:52:39;10.27;;;7.20;;
12214;SDS011;6170;42.206;24.142;2023-04-25T02:55:06;9.65;;;7.43;;
12214;SDS011;6170;42.206;24.142;2023-04-25T02:57:33;9.40;;;7.43;;
12214;SDS011;6170;42.206;24.142;2023-04-25T03:00:00;12.57;;;7.72;;
12214;SDS011;6170;42.206;24.142;2023-04-25T03:02:29;10.43;;;7.47;;
12214;SDS011;6170;42.206;24.142;2023-04-25T03:04:57;10.32;;;8.02;;
12214;SDS011;6170;42.206;24.142;2023-04-25T03:07:24;12.23;;;8.23;;
12214;SDS011;6170;42.206;24.142;2023-04-25T03:09:51;11.52;;;8.38;;
12214;SDS011;6170;42.206;24.142;2023-04-25T03:12:18;10.07;;;7.20;;
12214;SDS011;6170;42.206;24.142;2023-04-25T03:14:45;11.90;;;7.72;;
12214;SDS011;6170;42.206;24.142;2023-04-25T03:17:12;12.07;;;8.48;;
12214;SDS011;6170;42.206;24.142;2023-04-25T03:19:39;9.40;;;7.25;;
12214;SDS011;6170;42.206;24.142;2023-04-25T03:22:07;9.50;;;7.38;;
12214;SDS011;6170;42.206;24.142;2023-04-25T03:24:34;9.20;;;7.15;;
12214;SDS011;6170;42.206;24.142;2023-04-25T03:27:02;7.88;;;6.57;;
12214;SDS011;6170;42.206;24.142;2023-04-25T03:29:29;10.32;;;5.97;;
12214;SDS011;6170;42.206;24.142;2023-04-25T03:31:56;9.35;;;6.15;;
12214;SDS011;6170;42.206;24.142;2023-04-25T03:34:23;8.02;;;6.50;;
12214;SDS011;6170;42.206;24.142;2023-04-25T03:36:51;9.95;;;6.40;;
12214;SDS011;6170;42.206;24.142;2023-04-25T03:39:19;8.77;;;6.50;;
12214;SDS011;6170;42.206;24.142;2023-04-25T03:41:46;7.97;;;6.13;;
12214;SDS011;6170;42.206;24.142;2023-04-25T03:44:13;8.75;;;6.32;;
12214;SDS011;6170;42.206;24.142;2023-04-25T03:46:40;11.15;;;6.22;;
12214;SDS011;6170;42.206;24.142;2023-04-25T03:49:07;10.15;;;6.93;;
12214;SDS011;6170;42.206;24.142;2023-04-25T03:51:33;13.13;;;6.32;;
12214;SDS011;6170;42.206;24.142;2023-04-25T03:54:00;9.13;;;6.13;;
12214;SDS011;6170;42.206;24.142;2023-04-25T03:56:29;8.98;;;6.60;;
12214;SDS011;6170;42.206;24.142;2023-04-25T03:58:56;15.25;;;6.82;;
12214;SDS011;6170;42.206;24.142;2023-04-25T04:01:23;12.77;;;7.05;;
12214;SDS011;6170;42.206;24.142;2023-04-25T04:03:50;9.50;;;6.40;;
12214;SDS011;6170;42.206;24.142;2023-04-25T04:06:17;8.82;;;6.60;;
12214;SDS011;6170;42.206;24.142;2023-04-25T04:08:45;10.77;;;7.47;;
12214;SDS011;6170;42.206;24.142;2023-04-25T04:11:12;12.90;;;7.45;;
12214;SDS011;6170;42.206;24.142;2023-04-25T04:13:41;11.55;;;7.07;;
12214;SDS011;6170;42.206;24.142;2023-04-25T04:16:08;10.07;;;7.13;;
12214;SDS011;6170;42.206;24.142;2023-04-25T04:18:35;10.80;;;6.88;;
12214;SDS011;6170;42.206;24.142;2023-04-25T04:21:02;7.65;;;6.15;;
12214;SDS011;6170;42.206;24.142;2023-04-25T04:23:29;9.35;;;7.60;;
12214;SDS011;6170;42.206;24.142;2023-04-25T04:25:56;11.68;;;8.13;;
12214;SDS011;6170;42.206;24.142;2023-04-25T04:28:23;10.85;;;7.93;;
12214;SDS011;6170;42.206;24.142;2023-04-25T04:30:51;11.25;;;7.97;;
12214;SDS011;6170;42.206;24.142;2023-04-25T04:33:18;11.05;;;8.10;;
12214;SDS011;6170;42.206;24.142;2023-04-25T04:35:45;13.55;;;8.85;;
12214;SDS011;6170;42.206;24.142;2023-04-25T04:38:13;16.63;;;9.40;;
12214;SDS011;6170;42.206;24.142;2023-04-25T04:40:41;28.85;;;16.38;;
12214;SDS011;6170;42.206;24.142;2023-04-25T04:43:08;109.53;;;49.08;;
12214;SDS011;6170;42.206;24.142;2023-04-25T04:45:35;126.30;;;57.15;;
12214;SDS011;6170;42.206;24.142;2023-04-25T04:48:05;26.13;;;14.90;;
12214;SDS011;6170;42.206;24.142;2023-04-25T04:50:32;9.07;;;6.03;;
12214;SDS011;6170;42.206;24.142;2023-04-25T04:52:59;7.93;;;4.50;;
12214;SDS011;6170;42.206;24.142;2023-04-25T04:55:26;5.72;;;4.57;;
12214;SDS011;6170;42.206;24.142;2023-04-25T04:57:53;11.90;;;5.75;;
12214;SDS011;6170;42.206;24.142;2023-04-25T05:00:20;8.85;;;5.53;;
12214;SDS011;6170;42.206;24.142;2023-04-25T05:02:47;6.82;;;5.47;;
12214;SDS011;6170;42.206;24.142;2023-04-25T05:05:15;6.50;;;5.63;;
12214;SDS011;6170;42.206;24.142;2023-04-25T05:07:42;5.40;;;4.90;;
12214;SDS011;6170;42.206;24.142;2023-04-25T05:10:09;9.38;;;5.43;;
12214;SDS011;6170;42.206;24.142;2023-04-25T05:12:36;9.45;;;5.40;;
12214;SDS011;6170;42.206;24.142;2023-04-25T05:15:03;9.98;;;4.20;;
12214;SDS011;6170;42.206;24.142;2023-04-25T05:17:30;4.35;;;3.92;;
12214;SDS011;6170;42.206;24.142;2023-04-25T05:19:57;7.32;;;4.75;;
12214;SDS011;6170;42.206;24.142;2023-04-25T05:22:26;7.93;;;3.80;;
12214;SDS011;6170;42.206;24.142;2023-04-25T05:24:53;5.95;;;4.10;;
12214;SDS011;6170;42.206;24.142;2023-04-25T05:27:20;7.75;;;4.85;;
12214;SDS011;6170;42.206;24.142;2023-04-25T05:29:47;9.18;;;6.95;;
12214;SDS011;6170;42.206;24.142;2023-04-25T05:32:14;9.60;;;6.65;;
12214;SDS011;6170;42.206;24.142;2023-04-25T05:34:41;6.95;;;3.65;;
12214;SDS011;6170;42.206;24.142;2023-04-25T05:37:08;5.47;;;4.40;;
12214;SDS011;6170;42.206;24.142;2023-04-25T05:39:36;5.75;;;4.50;;
12214;SDS011;6170;42.206;24.142;2023-04-25T05:42:03;4.90;;;4.18;;
12214;SDS011;6170;42.206;24.142;2023-04-25T05:44:30;6.57;;;3.90;;
12214;SDS011;6170;42.206;24.142;2023-04-25T05:46:57;5.18;;;3.40;;
12214;SDS011;6170;42.206;24.142;2023-04-25T05:49:24;5.85;;;3.65;;
12214;SDS011;6170;42.206;24.142;2023-04-25T05:51:51;5.20;;;3.47;;
12214;SDS011;6170;42.206;24.142;2023-04-25T05:54:18;6.60;;;3.28;;
12214;SDS011;6170;42.206;24.142;2023-04-25T05:56:46;4.03;;;3.20;;
12214;SDS011;6170;42.206;24.142;2023-04-25T05:59:13;3.47;;;2.72;;
12214;SDS011;6170;42.206;24.142;2023-04-25T06:01:40;4.15;;;3.10;;
12214;SDS011;6170;42.206;24.142;2023-04-25T06:04:07;10.82;;;3.50;;
12214;SDS011;6170;42.206;24.142;2023-04-25T06:06:35;8.52;;;3.00;;
12214;SDS011;6170;42.206;24.142;2023-04-25T06:09:01;6.57;;;3.70;;
12214;SDS011;6170;42.206;24.142;2023-04-25T06:11:28;4.32;;;2.95;;
12214;SDS011;6170;42.206;24.142;2023-04-25T06:13:57;4.40;;;3.78;;
12214;SDS011;6170;42.206;24.142;2023-04-25T06:16:24;4.55;;;3.80;;
12214;SDS011;6170;42.206;24.142;2023-04-25T06:18:51;3.83;;;2.83;;
12214;SDS011;6170;42.206;24.142;2023-04-25T06:21:18;5.40;;;3.45;;
12214;SDS011;6170;42.206;24.142;2023-04-25T06:23:45;10.93;;;3.95;;
12214;SDS011;6170;42.206;24.142;2023-04-25T06:26:11;7.25;;;5.93;;
12214;SDS011;6170;42.206;24.142;2023-04-25T06:28:38;3.80;;;2.90;;
12214;SDS011;6170;42.206;24.142;2023-04-25T06:31:07;3.45;;;2.35;;
12214;SDS011;6170;42.206;24.142;2023-04-25T06:33:34;2.88;;;2.60;;
12214;SDS011;6170;42.206;24.142;2023-04-25T06:36:01;4.25;;;2.97;;
12214;SDS011;6170;42.206;24.142;2023-04-25T06:38:27;3.80;;;2.60;;
12214;SDS011;6170;42.206;24.142;2023-04-25T06:40:54;5.43;;;2.40;;
12214;SDS011;6170;42.206;24.142;2023-04-25T06:43:21;3.85;;;2.58;;
12214;SDS011;6170;42.206;24.142;2023-04-25T06:45:48;5.05;;;2.78;;
12214;SDS011;6170;42.206;24.142;2023-04-25T06:48:16;7.60;;;2.70;;
12214;SDS011;6170;42.206;24.142;2023-04-25T06:50:43;3.50;;;2.92;;
12214;SDS011;6170;42.206;24.142;2023-04-25T06:53:10;4.57;;;3.20;;
12214;SDS011;6170;42.206;24.142;2023-04-25T06:55:38;12.63;;;3.83;;
12214;SDS011;6170;42.206;24.142;2023-04-25T06:58:05;9.77;;;2.63;;
12214;SDS011;6170;42.206;24.142;2023-04-25T07:00:32;4.93;;;2.80;;
12214;SDS011;6170;42.206;24.142;2023-04-25T07:02:59;6.35;;;3.00;;
12214;SDS011;6170;42.206;24.142;2023-04-25T07:05:28;6.07;;;3.20;;
12214;SDS011;6170;42.206;24.142;2023-04-25T07:07:55;5.10;;;3.33;;
12214;SDS011;6170;42.206;24.142;2023-04-25T07:10:22;4.07;;;3.17;;
12214;SDS011;6170;42.206;24.142;2023-04-25T07:12:50;4.65;;;3.28;;
12214;SDS011;6170;42.206;24.142;2023-04-25T07:15:17;5.00;;;3.00;;
12214;SDS011;6170;42.206;24.142;2023-04-25T07:17:44;9.73;;;3.58;;
12214;SDS011;6170;42.206;24.142;2023-04-25T07:20:11;6.15;;;3.03;;
12214;SDS011;6170;42.206;24.142;2023-04-25T07:22:39;6.13;;;3.45;;
12214;SDS011;6170;42.206;24.142;2023-04-25T07:25:07;6.45;;;3.45;;
12214;SDS011;6170;42.206;24.142;2023-04-25T07:27:34;4.40;;;2.85;;
12214;SDS011;6170;42.206;24.142;2023-04-25T07:30:02;8.63;;;4.72;;
12214;SDS011;6170;42.206;24.142;2023-04-25T07:32:30;8.27;;;4.10;;
12214;SDS011;6170;42.206;24.142;2023-04-25T07:34:56;4.45;;;3.35;;
12214;SDS011;6170;42.206;24.142;2023-04-25T07:37:23;4.80;;;3.30;;
12214;SDS011;6170;42.206;24.142;2023-04-25T07:39:52;6.78;;;3.47;;
12214;SDS011;6170;42.206;24.142;2023-04-25T07:42:19;4.00;;;3.60;;
12214;SDS011;6170;42.206;24.142;2023-04-25T07:44:46;9.18;;;3.95;;
12214;SDS011;6170;42.206;24.142;2023-04-25T07:47:13;11.15;;;4.93;;
12214;SDS011;6170;42.206;24.142;2023-04-25T07:49:40;13.85;;;4.60;;
12214;SDS011;6170;42.206;24.142;2023-04-25T07:52:06;5.10;;;3.17;;
12214;SDS011;6170;42.206;24.142;2023-04-25T07:54:34;4.35;;;3.00;;
12214;SDS011;6170;42.206;24.142;2023-04-25T07:57:02;5.72;;;3.08;;
12214;SDS011;6170;42.206;24.142;2023-04-25T07:59:31;5.25;;;3.22;;
12214;SDS011;6170;42.206;24.142;2023-04-25T08:01:59;5.85;;;3.05;;
12214;SDS011;6170;42.206;24.142;2023-04-25T08:04:27;5.88;;;3.22;;
12214;SDS011;6170;42.206;24.142;2023-04-25T08:06:54;8.60;;;3.25;;
12214;SDS011;6170;42.206;24.142;2023-04-25T08:09:21;4.05;;;2.95;;
12214;SDS011;6170;42.206;24.142;2023-04-25T08:11:48;7.47;;;3.50;;
12214;SDS011;6170;42.206;24.142;2023-04-25T08:14:16;5.72;;;3.10;;
12214;SDS011;6170;42.206;24.142;2023-04-25T08:16:44;4.70;;;2.95;;
12214;SDS011;6170;42.206;24.142;2023-04-25T08:19:11;3.53;;;2.50;;
12214;SDS011;6170;42.206;24.142;2023-04-25T08:21:38;3.75;;;2.92;;
12214;SDS011;6170;42.206;24.142;2023-04-25T08:24:05;5.97;;;3.13;;
12214;SDS011;6170;42.206;24.142;2023-04-25T08:26:32;6.95;;;3.10;;
12214;SDS011;6170;42.206;24.142;2023-04-25T08:28:59;7.10;;;2.58;;
12214;SDS011;6170;42.206;24.142;2023-04-25T08:31:27;3.38;;;2.35;;
12214;SDS011;6170;42.206;24.142;2023-04-25T08:33:54;4.32;;;2.45;;
12214;SDS011;6170;42.206;24.142;2023-04-25T08:36:21;5.00;;;2.88;;
12214;SDS011;6170;42.206;24.142;2023-04-25T08:38:49;3.67;;;2.63;;
12214;SDS011;6170;42.206;24.142;2023-04-25T08:41:16;6.07;;;2.78;;
12214;SDS011;6170;42.206;24.142;2023-04-25T08:43:44;4.32;;;2.30;;
12214;SDS011;6170;42.206;24.142;2023-04-25T08:46:11;3.15;;;2.60;;
12214;SDS011;6170;42.206;24.142;2023-04-25T08:48:43;5.05;;;2.70;;
12214;SDS011;6170;42.206;24.142;2023-04-25T08:51:13;3.55;;;2.60;;
12214;SDS011;6170;42.206;24.142;2023-04-25T08:53:47;5.78;;;2.92;;
12214;SDS011;6170;42.206;24.142;2023-04-25T08:56:16;3.45;;;2.65;;
12214;SDS011;6170;42.206;24.142;2023-04-25T08:58:47;7.32;;;2.20;;
12214;SDS011;6170;42.206;24.142;2023-04-25T09:01:15;3.78;;;2.35;;
12214;SDS011;6170;42.206;24.142;2023-04-25T09:03:43;5.13;;;3.00;;
12214;SDS011;6170;42.206;24.142;2023-04-25T09:06:12;5.72;;;3.00;;
12214;SDS011;6170;42.206;24.142;2023-04-25T09:08:41;4.03;;;2.75;;
12214;SDS011;6170;42.206;24.142;2023-04-25T09:11:08;3.58;;;2.65;;
12214;SDS011;6170;42.206;24.142;2023-04-25T09:13:35;4.53;;;3.08;;
12214;SDS011;6170;42.206;24.142;2023-04-25T09:16:02;5.35;;;2.65;;
12214;SDS011;6170;42.206;24.142;2023-04-25T09:18:29;4.80;;;2.63;;
12214;SDS011;6170;42.206;24.142;2023-04-25T09:20:58;3.90;;;2.53;;
12214;SDS011;6170;42.206;24.142;2023-04-25T09:23:38;3.45;;;2.53;;
12214;SDS011;6170;42.206;24.142;2023-04-25T09:26:06;3.80;;;2.47;;
12214;SDS011;6170;42.206;24.142;2023-04-25T09:28:34;2.40;;;2.15;;
12214;SDS011;6170;42.206;24.142;2023-04-25T09:31:03;3.70;;;2.10;;
12214;SDS011;6170;42.206;24.142;2023-04-25T09:33:30;6.32;;;2.58;;
12214;SDS011;6170;42.206;24.142;2023-04-25T09:36:05;3.17;;;2.58;;
12214;SDS011;6170;42.206;24.142;2023-04-25T09:38:39;4.10;;;2.60;;
12214;SDS011;6170;42.206;24.142;2023-04-25T09:41:07;5.28;;;2.83;;
12214;SDS011;6170;42.206;24.142;2023-04-25T09:43:34;4.07;;;2.92;;
12214;SDS011;6170;42.206;24.142;2023-04-25T09:46:02;4.88;;;2.60;;
12214;SDS011;6170;42.206;24.142;2023-04-25T09:48:29;6.07;;;2.85;;
12214;SDS011;6170;42.206;24.142;2023-04-25T09:51:07;4.35;;;3.22;;
12214;SDS011;6170;42.206;24.142;2023-04-25T09:53:35;2.80;;;2.60;;
12214;SDS011;6170;42.206;24.142;2023-04-25T09:56:04;4.15;;;3.03;;
12214;SDS011;6170;42.206;24.142;2023-04-25T09:58:33;3.95;;;2.90;;
12214;SDS011;6170;42.206;24.142;2023-04-25T10:01:01;5.28;;;2.83;;
12214;SDS011;6170;42.206;24.142;2023-04-25T10:03:29;3.00;;;2.70;;
12214;SDS011;6170;42.206;24.142;2023-04-25T10:05:57;4.30;;;2.65;;
12214;SDS011;6170;42.206;24.142;2023-04-25T10:08:28;6.18;;;2.58;;
12214;SDS011;6170;42.206;24.142;2023-04-25T10:10:59;4.97;;;2.92;;
12214;SDS011;6170;42.206;24.142;2023-04-25T10:13:28;4.38;;;2.85;;
12214;SDS011;6170;42.206;24.142;2023-04-25T10:15:56;3.40;;;2.67;;
12214;SDS011;6170;42.206;24.142;2023-04-25T10:18:24;3.25;;;2.42;;
12214;SDS011;6170;42.206;24.142;2023-04-25T10:20:51;5.55;;;2.20;;
12214;SDS011;6170;42.206;24.142;2023-04-25T10:23:20;3.47;;;2.10;;
12214;SDS011;6170;42.206;24.142;2023-04-25T10:25:48;2.67;;;2.10;;
12214;SDS011;6170;42.206;24.142;2023-04-25T10:28:16;2.40;;;2.10;;
12214;SDS011;6170;42.206;24.142;2023-04-25T10:30:56;1.95;;;1.85;;
12214;SDS011;6170;42.206;24.142;2023-04-25T10:33:29;2.10;;;1.90;;
12214;SDS011;6170;42.206;24.142;2023-04-25T10:35:58;3.70;;;2.60;;
12214;SDS011;6170;42.206;24.142;2023-04-25T10:38:34;4.40;;;2.10;;
12214;SDS011;6170;42.206;24.142;2023-04-25T10:41:04;7.20;;;6.50;;
12214;SDS011;6170;42.206;24.142;2023-04-25T10:43:34;3.42;;;2.90;;
12214;SDS011;6170;42.206;24.142;2023-04-25T10:46:02;2.05;;;1.77;;
12214;SDS011;6170;42.206;24.142;2023-04-25T10:48:38;4.78;;;1.88;;
12214;SDS011;6170;42.206;24.142;2023-04-25T10:51:15;3.40;;;1.80;;
12214;SDS011;6170;42.206;24.142;2023-04-25T10:53:43;4.57;;;2.03;;
12214;SDS011;6170;42.206;24.142;2023-04-25T10:56:12;4.63;;;1.80;;
12214;SDS011;6170;42.206;24.142;2023-04-25T10:58:44;8.57;;;4.80;;
12214;SDS011;6170;42.206;24.142;2023-04-25T11:01:12;6.75;;;4.55;;
12214;SDS011;6170;42.206;24.142;2023-04-25T11:03:42;5.25;;;2.72;;
12214;SDS011;6170;42.206;24.142;2023-04-25T11:06:14;5.32;;;3.05;;
12214;SDS011;6170;42.206;24.142;2023-04-25T11:08:49;4.18;;;3.78;;
12214;SDS011;6170;42.206;24.142;2023-04-25T11:11:18;3.95;;;2.40;;
12214;SDS011;6170;42.206;24.142;2023-04-25T11:13:47;3.50;;;3.00;;
12214;SDS011;6170;42.206;24.142;2023-04-25T11:16:15;3.40;;;2.05;;
12214;SDS011;6170;42.206;24.142;2023-04-25T11:18:42;2.63;;;1.70;;
12214;SDS011;6170;42.206;24.142;2023-04-25T11:21:09;5.00;;;2.80;;
12214;SDS011;6170;42.206;24.142;2023-04-25T11:23:36;3.05;;;2.28;;
12214;SDS011;6170;42.206;24.142;2023-04-25T11:26:03;11.02;;;9.68;;
12214;SDS011;6170;42.206;24.142;2023-04-25T11:28:32;4.72;;;4.18;;
12214;SDS011;6170;42.206;24.142;2023-04-25T11:30:59;9.07;;;6.45;;
12214;SDS011;6170;42.206;24.142;2023-04-25T11:33:25;11.05;;;8.38;;
12214;SDS011;6170;42.206;24.142;2023-04-25T11:35:53;3.35;;;1.90;;
12214;SDS011;6170;42.206;24.142;2023-04-25T11:38:22;3.40;;;1.70;;
12214;SDS011;6170;42.206;24.142;2023-04-25T11:40:51;2.60;;;1.70;;
12214;SDS011;6170;42.206;24.142;2023-04-25T11:43:19;2.90;;;1.70;;
12214;SDS011;6170;42.206;24.142;2023-04-25T11:45:49;1.65;;;1.55;;
12214;SDS011;6170;42.206;24.142;2023-04-25T11:48:17;2.17;;;1.90;;
12214;SDS011;6170;42.206;24.142;2023-04-25T11:50:44;1.85;;;1.75;;
12214;SDS011;6170;42.206;24.142;2023-04-25T11:53:11;4.25;;;3.13;;
12214;SDS011;6170;42.206;24.142;2023-04-25T11:55:38;3.90;;;1.67;;
12214;SDS011;6170;42.206;24.142;2023-04-25T11:58:05;3.53;;;1.88;;
12214;SDS011;6170;42.206;24.142;2023-04-25T12:00:33;2.63;;;1.88;;
12214;SDS011;6170;42.206;24.142;2023-04-25T12:03:03;1.60;;;1.50;;
12214;SDS011;6170;42.206;24.142;2023-04-25T12:05:30;2.58;;;1.45;;
12214;SDS011;6170;42.206;24.142;2023-04-25T12:07:58;3.22;;;2.20;;
12214;SDS011;6170;42.206;24.142;2023-04-25T12:10:37;3.13;;;2.40;;
12214;SDS011;6170;42.206;24.142;2023-04-25T12:13:17;2.83;;;2.30;;
12214;SDS011;6170;42.206;24.142;2023-04-25T12:15:45;2.47;;;2.22;;
12214;SDS011;6170;42.206;24.142;2023-04-25T12:18:13;2.05;;;1.95;;
12214;SDS011;6170;42.206;24.142;2023-04-25T12:20:41;3.50;;;2.38;;
12214;SDS011;6170;42.206;24.142;2023-04-25T12:23:08;4.75;;;2.40;;
12214;SDS011;6170;42.206;24.142;2023-04-25T12:25:37;3.42;;;2.20;;
12214;SDS011;6170;42.206;24.142;2023-04-25T12:28:14;3.03;;;2.38;;
12214;SDS011;6170;42.206;24.142;2023-04-25T12:30:54;3.40;;;2.25;;
12214;SDS011;6170;42.206;24.142;2023-04-25T12:33:24;2.88;;;2.25;;
12214;SDS011;6170;42.206;24.142;2023-04-25T12:35:52;2.40;;;2.20;;
12214;SDS011;6170;42.206;24.142;2023-04-25T12:38:22;2.53;;;2.10;;
12214;SDS011;6170;42.206;24.142;2023-04-25T12:40:50;4.70;;;1.77;;
12214;SDS011;6170;42.206;24.142;2023-04-25T12:43:17;1.60;;;1.50;;
12214;SDS011;6170;42.206;24.142;2023-04-25T12:45:44;4.25;;;1.90;;
12214;SDS011;6170;42.206;24.142;2023-04-25T12:48:11;6.70;;;2.25;;
12214;SDS011;6170;42.206;24.142;2023-04-25T12:50:39;6.00;;;1.85;;
12214;SDS011;6170;42.206;24.142;2023-04-25T12:53:06;5.13;;;2.10;;
12214;SDS011;6170;42.206;24.142;2023-04-25T12:55:33;2.03;;;1.75;;
12214;SDS011;6170;42.206;24.142;2023-04-25T12:58:00;3.08;;;1.90;;
12214;SDS011;6170;42.206;24.142;2023-04-25T13:00:28;2.28;;;1.75;;
12214;SDS011;6170;42.206;24.142;2023-04-25T13:02:55;2.05;;;1.85;;
12214;SDS011;6170;42.206;24.142;2023-04-25T13:05:21;1.67;;;1.58;;
12214;SDS011;6170;42.206;24.142;2023-04-25T13:07:50;3.58;;;2.15;;
12214;SDS011;6170;42.206;24.142;2023-04-25T13:10:17;2.88;;;1.83;;
12214;SDS011;6170;42.206;24.142;2023-04-25T13:12:44;6.07;;;2.00;;
12214;SDS011;6170;42.206;24.142;2023-04-25T13:15:11;6.90;;;2.30;;
12214;SDS011;6170;42.206;24.142;2023-04-25T13:17:40;4.00;;;2.10;;
12214;SDS011;6170;42.206;24.142;2023-04-25T13:20:08;2.42;;;1.95;;
12214;SDS011;6170;42.206;24.142;2023-04-25T13:22:36;3.28;;;2.00;;
12214;SDS011;6170;42.206;24.142;2023-04-25T13:25:06;2.50;;;1.70;;
12214;SDS011;6170;42.206;24.142;2023-04-25T13:27:34;3.90;;;1.88;;
12214;SDS011;6170;42.206;24.142;2023-04-25T13:30:03;2.65;;;1.80;;
12214;SDS011;6170;42.206;24.142;2023-04-25T13:32:32;1.80;;;1.60;;
12214;SDS011;6170;42.206;24.142;2023-04-25T13:35:01;1.50;;;1.40;;
12214;SDS011;6170;42.206;24.142;2023-04-25T13:37:28;2.00;;;1.40;;
12214;SDS011;6170;42.206;24.142;2023-04-25T13:39:58;1.80;;;1.50;;
12214;SDS011;6170;42.206;24.142;2023-04-25T13:42:26;4.22;;;2.38;;
12214;SDS011;6170;42.206;24.142;2023-04-25T13:44:53;8.55;;;2.65;;
12214;SDS011;6170;42.206;24.142;2023-04-25T13:47:20;3.22;;;2.58;;
12214;SDS011;6170;42.206;24.142;2023-04-25T13:49:48;4.75;;;1.95;;
12214;SDS011;6170;42.206;24.142;2023-04-25T13:52:15;5.55;;;3.28;;
12214;SDS011;6170;42.206;24.142;2023-04-25T13:54:42;9.20;;;7.05;;
12214;SDS011;6170;42.206;24.142;2023-04-25T13:57:09;5.22;;;3.97;;
12214;SDS011;6170;42.206;24.142;2023-04-25T13:59:38;2.50;;;2.30;;
12214;SDS011;6170;42.206;24.142;2023-04-25T14:02:05;4.95;;;1.60;;
12214;SDS011;6170;42.206;24.142;2023-04-25T14:04:32;1.60;;;1.50;;
12214;SDS011;6170;42.206;24.142;2023-04-25T14:07:00;2.55;;;1.77;;
12214;SDS011;6170;42.206;24.142;2023-04-25T14:09:27;4.93;;;2.40;;
12214;SDS011;6170;42.206;24.142;2023-04-25T14:11:55;4.28;;;1.85;;
12214;SDS011;6170;42.206;24.142;2023-04-25T14:14:22;5.32;;;2.47;;
12214;SDS011;6170;42.206;24.142;2023-04-25T14:16:51;1.75;;;1.60;;
12214;SDS011;6170;42.206;24.142;2023-04-25T14:19:19;7.57;;;1.77;;
12214;SDS011;6170;42.206;24.142;2023-04-25T14:21:46;2.75;;;1.85;;
12214;SDS011;6170;42.206;24.142;2023-04-25T14:24:13;6.03;;;2.25;;
12214;SDS011;6170;42.206;24.142;2023-04-25T14:26:40;5.05;;;2.05;;
12214;SDS011;6170;42.206;24.142;2023-04-25T14:29:08;3.88;;;1.98;;
12214;SDS011;6170;42.206;24.142;2023-04-25T14:31:37;3.63;;;2.75;;
12214;SDS011;6170;42.206;24.142;2023-04-25T14:34:05;3.58;;;2.15;;
12214;SDS011;6170;42.206;24.142;2023-04-25T14:36:32;3.33;;;2.00;;
12214;SDS011;6170;42.206;24.142;2023-04-25T14:39:00;3.00;;;2.00;;
12214;SDS011;6170;42.206;24.142;2023-04-25T14:41:27;2.65;;;1.92;;
12214;SDS011;6170;42.206;24.142;2023-04-25T14:43:54;3.75;;;1.85;;
12214;SDS011;6170;42.206;24.142;2023-04-25T14:46:22;3.65;;;2.25;;
12214;SDS011;6170;42.206;24.142;2023-04-25T14:48:51;5.53;;;2.50;;